sensor_id;sensor_type;location;lat;lon;timestamp;P1;durP1;ratioP1;P2;durP2;ratioP2
705;SDS011;21234;48.690;9.016;2023-05-10T00:00:33;1.87;;;1.00;;
705;SDS011;21234;48.690;9.016;2023-05-10T00:03:00;2.50;;;1.20;;
705;SDS011;21234;48.690;9.016;2023-05-10T00:05:29;2.00;;;0.80;;
705;SDS011;21234;48.690;9.016;2023-05-10T00:07:56;1.47;;;1.30;;
705;SDS011;21234;48.690;9.016;2023-05-10T00:10:23;0.80;;;0.80;;
705;SDS011;21234;48.690;9.016;2023-05-10T00:12:50;3.13;;;0.80;;
705;SDS011;21234;48.690;9.016;2023-05-10T00:15:18;3.33;;;0.50;;
705;SDS011;21234;48.690;9.016;2023-05-10T00:17:45;4.63;;;0.60;;
705;SDS011;21234;48.690;9.016;2023-05-10T00:20:12;0.50;;;0.30;;
705;SDS011;21234;48.690;9.016;2023-05-10T00:22:41;2.47;;;0.90;;
705;SDS011;21234;48.690;9.016;2023-05-10T00:25:08;0.80;;;0.40;;
705;SDS011;21234;48.690;9.016;2023-05-10T00:27:35;0.50;;;0.40;;
705;SDS011;21234;48.690;9.016;2023-05-10T00:30:02;3.30;;;0.80;;
705;SDS011;21234;48.690;9.016;2023-05-10T00:32:30;1.30;;;0.73;;
705;SDS011;21234;48.690;9.016;2023-05-10T00:34:57;1.27;;;0.50;;
705;SDS011;21234;48.690;9.016;2023-05-10T00:37:24;0.90;;;0.50;;
705;SDS011;21234;48.690;9.016;2023-05-10T00:39:51;0.57;;;0.50;;
705;SDS011;21234;48.690;9.016;2023-05-10T00:42:18;0.70;;;0.37;;
705;SDS011;21234;48.690;9.016;2023-05-10T00:44:44;1.33;;;0.30;;
705;SDS011;21234;48.690;9.016;2023-05-10T00:47:15;1.23;;;0.33;;
705;SDS011;21234;48.690;9.016;2023-05-10T00:49:43;1.80;;;0.87;;
705;SDS011;21234;48.690;9.016;2023-05-10T00:52:11;0.60;;;0.40;;
705;SDS011;21234;48.690;9.016;2023-05-10T00:54:39;1.03;;;0.37;;
705;SDS011;21234;48.690;9.016;2023-05-10T00:57:08;0.40;;;0.30;;
705;SDS011;21234;48.690;9.016;2023-05-10T00:59:35;1.87;;;0.37;;
705;SDS011;21234;48.690;9.016;2023-05-10T01:02:02;0.40;;;0.30;;
705;SDS011;21234;48.690;9.016;2023-05-10T01:04:29;0.70;;;0.30;;
705;SDS011;21234;48.690;9.016;2023-05-10T01:06:59;0.97;;;0.30;;
705;SDS011;21234;48.690;9.016;2023-05-10T01:09:26;0.43;;;0.23;;
705;SDS011;21234;48.690;9.016;2023-05-10T01:11:53;0.40;;;0.30;;
705;SDS011;21234;48.690;9.016;2023-05-10T01:14:20;0.40;;;0.30;;
705;SDS011;21234;48.690;9.016;2023-05-10T01:16:48;3.03;;;0.40;;
705;SDS011;21234;48.690;9.016;2023-05-10T01:19:18;1.20;;;0.40;;
705;SDS011;21234;48.690;9.016;2023-05-10T01:21:49;0.87;;;0.30;;
705;SDS011;21234;48.690;9.016;2023-05-10T01:33:35;0.50;;;0.30;;
705;SDS011;21234;48.690;9.016;2023-05-10T01:36:08;0.60;;;0.30;;
705;SDS011;21234;48.690;9.016;2023-05-10T01:38:42;4.10;;;0.40;;
705;SDS011;21234;48.690;9.016;2023-05-10T01:41:17;0.60;;;0.50;;
705;SDS011;21234;48.690;9.016;2023-05-10T01:43:48;0.40;;;0.30;;
705;SDS011;21234;48.690;9.016;2023-05-10T01:46:20;1.33;;;0.30;;
705;SDS011;21234;48.690;9.016;2023-05-10T01:48:56;1.07;;;0.40;;
705;SDS011;21234;48.690;9.016;2023-05-10T01:51:27;0.50;;;0.40;;
705;SDS011;21234;48.690;9.016;2023-05-10T01:53:58;1.30;;;0.30;;
705;SDS011;21234;48.690;9.016;2023-05-10T01:56:29;0.40;;;0.20;;
705;SDS011;21234;48.690;9.016;2023-05-10T01:58:58;1.50;;;0.47;;
705;SDS011;21234;48.690;9.016;2023-05-10T02:01:27;1.23;;;0.30;;
705;SDS011;21234;48.690;9.016;2023-05-10T02:03:53;0.60;;;0.30;;
705;SDS011;21234;48.690;9.016;2023-05-10T02:06:24;0.50;;;0.33;;
705;SDS011;21234;48.690;9.016;2023-05-10T02:08:53;0.40;;;0.30;;
705;SDS011;21234;48.690;9.016;2023-05-10T02:11:21;1.33;;;0.40;;
705;SDS011;21234;48.690;9.016;2023-05-10T02:13:49;1.23;;;0.30;;
705;SDS011;21234;48.690;9.016;2023-05-10T02:16:17;0.60;;;0.40;;
705;SDS011;21234;48.690;9.016;2023-05-10T02:18:47;0.80;;;0.30;;
705;SDS011;21234;48.690;9.016;2023-05-10T02:21:16;2.80;;;0.57;;
705;SDS011;21234;48.690;9.016;2023-05-10T02:23:43;0.73;;;0.50;;
705;SDS011;21234;48.690;9.016;2023-05-10T02:26:11;0.63;;;0.37;;
705;SDS011;21234;48.690;9.016;2023-05-10T02:28:40;1.60;;;0.50;;
705;SDS011;21234;48.690;9.016;2023-05-10T02:31:08;0.50;;;0.47;;
705;SDS011;21234;48.690;9.016;2023-05-10T02:33:36;0.70;;;0.50;;
705;SDS011;21234;48.690;9.016;2023-05-10T02:36:06;0.70;;;0.50;;
705;SDS011;21234;48.690;9.016;2023-05-10T02:38:36;1.07;;;0.57;;
705;SDS011;21234;48.690;9.016;2023-05-10T02:41:04;0.90;;;0.40;;
705;SDS011;21234;48.690;9.016;2023-05-10T02:43:31;0.90;;;0.57;;
705;SDS011;21234;48.690;9.016;2023-05-10T02:45:59;1.03;;;0.40;;
705;SDS011;21234;48.690;9.016;2023-05-10T02:48:27;0.50;;;0.47;;
705;SDS011;21234;48.690;9.016;2023-05-10T02:50:54;1.70;;;0.50;;
705;SDS011;21234;48.690;9.016;2023-05-10T02:53:28;0.90;;;0.70;;
705;SDS011;21234;48.690;9.016;2023-05-10T02:56:00;0.53;;;0.40;;
705;SDS011;21234;48.690;9.016;2023-05-10T02:58:32;1.10;;;0.80;;
705;SDS011;21234;48.690;9.016;2023-05-10T03:00:59;0.70;;;0.60;;
705;SDS011;21234;48.690;9.016;2023-05-10T03:03:26;2.03;;;0.60;;
705;SDS011;21234;48.690;9.016;2023-05-10T03:05:55;0.97;;;0.57;;
705;SDS011;21234;48.690;9.016;2023-05-10T03:08:22;0.60;;;0.40;;
705;SDS011;21234;48.690;9.016;2023-05-10T03:10:54;1.03;;;0.50;;
705;SDS011;21234;48.690;9.016;2023-05-10T03:13:33;2.70;;;0.40;;
705;SDS011;21234;48.690;9.016;2023-05-10T03:16:06;3.80;;;0.57;;
705;SDS011;21234;48.690;9.016;2023-05-10T03:18:38;1.37;;;0.60;;
705;SDS011;21234;48.690;9.016;2023-05-10T03:21:08;0.87;;;0.60;;
705;SDS011;21234;48.690;9.016;2023-05-10T03:23:40;0.60;;;0.50;;
705;SDS011;21234;48.690;9.016;2023-05-10T03:26:09;0.70;;;0.50;;
705;SDS011;21234;48.690;9.016;2023-05-10T03:28:40;0.80;;;0.50;;
705;SDS011;21234;48.690;9.016;2023-05-10T03:31:08;0.70;;;0.50;;
705;SDS011;21234;48.690;9.016;2023-05-10T03:33:35;0.50;;;0.50;;
705;SDS011;21234;48.690;9.016;2023-05-10T03:36:11;2.80;;;0.57;;
705;SDS011;21234;48.690;9.016;2023-05-10T03:38:38;0.83;;;0.60;;
705;SDS011;21234;48.690;9.016;2023-05-10T03:41:05;0.50;;;0.50;;
705;SDS011;21234;48.690;9.016;2023-05-10T03:43:32;0.60;;;0.50;;
705;SDS011;21234;48.690;9.016;2023-05-10T03:46:00;1.17;;;0.70;;
705;SDS011;21234;48.690;9.016;2023-05-10T03:48:29;0.70;;;0.53;;
705;SDS011;21234;48.690;9.016;2023-05-10T03:50:55;1.00;;;0.70;;
705;SDS011;21234;48.690;9.016;2023-05-10T03:53:24;2.00;;;0.73;;
705;SDS011;21234;48.690;9.016;2023-05-10T03:55:51;0.70;;;0.50;;
705;SDS011;21234;48.690;9.016;2023-05-10T03:58:18;0.50;;;0.50;;
705;SDS011;21234;48.690;9.016;2023-05-10T04:00:45;0.80;;;0.80;;
705;SDS011;21234;48.690;9.016;2023-05-10T04:03:13;1.00;;;0.90;;
705;SDS011;21234;48.690;9.016;2023-05-10T04:05:40;1.43;;;0.83;;
705;SDS011;21234;48.690;9.016;2023-05-10T04:08:08;1.30;;;1.07;;
705;SDS011;21234;48.690;9.016;2023-05-10T04:10:35;0.80;;;0.60;;
705;SDS011;21234;48.690;9.016;2023-05-10T04:13:01;0.53;;;0.50;;
705;SDS011;21234;48.690;9.016;2023-05-10T04:15:28;1.43;;;0.80;;
705;SDS011;21234;48.690;9.016;2023-05-10T04:17:55;1.20;;;0.87;;
705;SDS011;21234;48.690;9.016;2023-05-10T04:20:23;0.90;;;0.70;;
705;SDS011;21234;48.690;9.016;2023-05-10T04:22:51;1.10;;;0.97;;
705;SDS011;21234;48.690;9.016;2023-05-10T04:25:17;2.10;;;1.10;;
705;SDS011;21234;48.690;9.016;2023-05-10T04:27:44;0.90;;;0.90;;
705;SDS011;21234;48.690;9.016;2023-05-10T04:30:11;1.90;;;1.40;;
705;SDS011;21234;48.690;9.016;2023-05-10T04:32:38;1.10;;;1.00;;
705;SDS011;21234;48.690;9.016;2023-05-10T04:35:05;0.90;;;0.70;;
705;SDS011;21234;48.690;9.016;2023-05-10T04:37:34;1.03;;;1.03;;
705;SDS011;21234;48.690;9.016;2023-05-10T04:40:01;1.37;;;1.23;;
705;SDS011;21234;48.690;9.016;2023-05-10T04:42:29;1.13;;;0.77;;
705;SDS011;21234;48.690;9.016;2023-05-10T04:44:56;1.33;;;0.87;;
705;SDS011;21234;48.690;9.016;2023-05-10T04:47:22;1.30;;;0.70;;
705;SDS011;21234;48.690;9.016;2023-05-10T04:49:49;1.33;;;1.23;;
705;SDS011;21234;48.690;9.016;2023-05-10T04:52:16;1.13;;;1.00;;
705;SDS011;21234;48.690;9.016;2023-05-10T04:54:44;1.00;;;0.83;;
705;SDS011;21234;48.690;9.016;2023-05-10T04:57:11;1.73;;;1.00;;
705;SDS011;21234;48.690;9.016;2023-05-10T04:59:39;2.00;;;0.80;;
705;SDS011;21234;48.690;9.016;2023-05-10T05:02:06;3.43;;;1.40;;
705;SDS011;21234;48.690;9.016;2023-05-10T05:04:32;1.20;;;0.87;;
705;SDS011;21234;48.690;9.016;2023-05-10T05:06:59;1.70;;;1.00;;
705;SDS011;21234;48.690;9.016;2023-05-10T05:09:26;1.30;;;1.20;;
705;SDS011;21234;48.690;9.016;2023-05-10T05:11:54;1.87;;;1.37;;
705;SDS011;21234;48.690;9.016;2023-05-10T05:14:21;2.00;;;0.83;;
705;SDS011;21234;48.690;9.016;2023-05-10T05:16:47;2.00;;;1.20;;
705;SDS011;21234;48.690;9.016;2023-05-10T05:19:14;1.30;;;0.80;;
705;SDS011;21234;48.690;9.016;2023-05-10T05:21:41;1.47;;;1.33;;
705;SDS011;21234;48.690;9.016;2023-05-10T05:24:07;1.80;;;1.33;;
705;SDS011;21234;48.690;9.016;2023-05-10T05:26:35;1.30;;;1.13;;
705;SDS011;21234;48.690;9.016;2023-05-10T05:29:03;2.37;;;1.13;;
705;SDS011;21234;48.690;9.016;2023-05-10T05:31:30;1.50;;;1.00;;
705;SDS011;21234;48.690;9.016;2023-05-10T05:33:56;1.43;;;1.27;;
705;SDS011;21234;48.690;9.016;2023-05-10T05:36:23;2.63;;;1.27;;
705;SDS011;21234;48.690;9.016;2023-05-10T05:38:51;1.57;;;1.20;;
705;SDS011;21234;48.690;9.016;2023-05-10T05:41:17;6.80;;;1.37;;
705;SDS011;21234;48.690;9.016;2023-05-10T05:43:45;2.40;;;1.30;;
705;SDS011;21234;48.690;9.016;2023-05-10T05:46:13;2.03;;;1.53;;
705;SDS011;21234;48.690;9.016;2023-05-10T05:48:40;1.40;;;1.30;;
705;SDS011;21234;48.690;9.016;2023-05-10T05:51:07;1.43;;;1.20;;
705;SDS011;21234;48.690;9.016;2023-05-10T05:53:33;1.23;;;0.80;;
705;SDS011;21234;48.690;9.016;2023-05-10T05:56:00;4.23;;;1.13;;
705;SDS011;21234;48.690;9.016;2023-05-10T05:58:28;1.80;;;1.20;;
705;SDS011;21234;48.690;9.016;2023-05-10T06:00:55;1.27;;;0.90;;
705;SDS011;21234;48.690;9.016;2023-05-10T06:03:23;0.73;;;0.73;;
705;SDS011;21234;48.690;9.016;2023-05-10T06:05:50;1.93;;;1.30;;
705;SDS011;21234;48.690;9.016;2023-05-10T06:08:18;2.13;;;1.03;;
705;SDS011;21234;48.690;9.016;2023-05-10T06:10:45;1.37;;;1.03;;
705;SDS011;21234;48.690;9.016;2023-05-10T06:13:12;1.27;;;1.00;;
705;SDS011;21234;48.690;9.016;2023-05-10T06:15:39;1.67;;;1.23;;
705;SDS011;21234;48.690;9.016;2023-05-10T06:18:05;1.57;;;1.13;;
705;SDS011;21234;48.690;9.016;2023-05-10T06:20:33;0.80;;;0.80;;
705;SDS011;21234;48.690;9.016;2023-05-10T06:23:00;1.77;;;1.33;;
705;SDS011;21234;48.690;9.016;2023-05-10T06:25:27;1.03;;;0.93;;
705;SDS011;21234;48.690;9.016;2023-05-10T06:27:53;2.00;;;1.20;;
705;SDS011;21234;48.690;9.016;2023-05-10T06:30:23;1.03;;;0.93;;
705;SDS011;21234;48.690;9.016;2023-05-10T06:32:53;2.93;;;1.43;;
705;SDS011;21234;48.690;9.016;2023-05-10T06:35:20;3.07;;;1.50;;
705;SDS011;21234;48.690;9.016;2023-05-10T06:37:48;5.00;;;1.77;;
705;SDS011;21234;48.690;9.016;2023-05-10T06:40:17;2.00;;;1.43;;
705;SDS011;21234;48.690;9.016;2023-05-10T06:42:45;2.50;;;1.37;;
705;SDS011;21234;48.690;9.016;2023-05-10T06:45:11;1.47;;;1.03;;
705;SDS011;21234;48.690;9.016;2023-05-10T06:47:39;1.97;;;1.60;;
705;SDS011;21234;48.690;9.016;2023-05-10T06:50:06;2.90;;;1.50;;
705;SDS011;21234;48.690;9.016;2023-05-10T06:52:33;1.20;;;1.10;;
705;SDS011;21234;48.690;9.016;2023-05-10T06:55:01;1.50;;;1.23;;
705;SDS011;21234;48.690;9.016;2023-05-10T06:57:29;2.03;;;1.23;;
705;SDS011;21234;48.690;9.016;2023-05-10T06:59:56;1.27;;;1.17;;
705;SDS011;21234;48.690;9.016;2023-05-10T07:02:25;3.07;;;1.30;;
705;SDS011;21234;48.690;9.016;2023-05-10T07:04:51;1.37;;;1.10;;
705;SDS011;21234;48.690;9.016;2023-05-10T07:07:19;1.47;;;1.37;;
705;SDS011;21234;48.690;9.016;2023-05-10T07:09:45;1.73;;;1.27;;
705;SDS011;21234;48.690;9.016;2023-05-10T07:12:14;2.80;;;1.40;;
705;SDS011;21234;48.690;9.016;2023-05-10T07:14:40;2.03;;;1.27;;
705;SDS011;21234;48.690;9.016;2023-05-10T07:17:07;1.40;;;0.90;;
705;SDS011;21234;48.690;9.016;2023-05-10T07:19:34;1.30;;;1.20;;
705;SDS011;21234;48.690;9.016;2023-05-10T07:22:00;1.63;;;1.20;;
705;SDS011;21234;48.690;9.016;2023-05-10T07:24:27;1.00;;;1.00;;
705;SDS011;21234;48.690;9.016;2023-05-10T07:26:54;2.87;;;1.27;;
705;SDS011;21234;48.690;9.016;2023-05-10T07:29:22;2.50;;;1.27;;
705;SDS011;21234;48.690;9.016;2023-05-10T07:31:49;1.10;;;0.90;;
705;SDS011;21234;48.690;9.016;2023-05-10T07:34:16;2.67;;;1.37;;
705;SDS011;21234;48.690;9.016;2023-05-10T07:36:43;1.40;;;1.30;;
705;SDS011;21234;48.690;9.016;2023-05-10T07:39:09;1.80;;;1.20;;
705;SDS011;21234;48.690;9.016;2023-05-10T07:41:37;1.30;;;0.93;;
705;SDS011;21234;48.690;9.016;2023-05-10T07:44:04;1.60;;;1.20;;
705;SDS011;21234;48.690;9.016;2023-05-10T07:46:34;2.23;;;1.37;;
705;SDS011;21234;48.690;9.016;2023-05-10T07:49:00;1.90;;;1.50;;
705;SDS011;21234;48.690;9.016;2023-05-10T07:51:27;1.10;;;0.70;;
705;SDS011;21234;48.690;9.016;2023-05-10T07:53:54;2.50;;;0.73;;
705;SDS011;21234;48.690;9.016;2023-05-10T07:56:21;3.50;;;1.10;;
705;SDS011;21234;48.690;9.016;2023-05-10T07:58:50;2.40;;;1.30;;
705;SDS011;21234;48.690;9.016;2023-05-10T08:01:17;0.97;;;0.70;;
705;SDS011;21234;48.690;9.016;2023-05-10T08:03:45;1.20;;;0.80;;
705;SDS011;21234;48.690;9.016;2023-05-10T08:06:12;1.13;;;0.80;;
705;SDS011;21234;48.690;9.016;2023-05-10T08:08:39;1.10;;;0.70;;
705;SDS011;21234;48.690;9.016;2023-05-10T08:11:06;1.27;;;1.00;;
705;SDS011;21234;48.690;9.016;2023-05-10T08:13:33;1.10;;;0.90;;
705;SDS011;21234;48.690;9.016;2023-05-10T08:15:59;1.00;;;0.90;;
705;SDS011;21234;48.690;9.016;2023-05-10T08:18:26;0.93;;;0.80;;
705;SDS011;21234;48.690;9.016;2023-05-10T08:20:54;1.63;;;0.67;;
705;SDS011;21234;48.690;9.016;2023-05-10T08:23:21;2.50;;;0.53;;
705;SDS011;21234;48.690;9.016;2023-05-10T08:25:48;0.93;;;0.70;;
705;SDS011;21234;48.690;9.016;2023-05-10T08:28:14;1.17;;;0.70;;
705;SDS011;21234;48.690;9.016;2023-05-10T08:30:41;0.70;;;0.60;;
705;SDS011;21234;48.690;9.016;2023-05-10T08:33:08;0.50;;;0.50;;
705;SDS011;21234;48.690;9.016;2023-05-10T08:35:34;2.80;;;0.70;;
705;SDS011;21234;48.690;9.016;2023-05-10T08:38:02;1.33;;;0.77;;
705;SDS011;21234;48.690;9.016;2023-05-10T08:40:29;0.60;;;0.57;;
705;SDS011;21234;48.690;9.016;2023-05-10T08:42:58;2.20;;;0.50;;
705;SDS011;21234;48.690;9.016;2023-05-10T08:45:31;0.63;;;0.60;;
705;SDS011;21234;48.690;9.016;2023-05-10T08:47:59;0.70;;;0.50;;
705;SDS011;21234;48.690;9.016;2023-05-10T08:50:27;0.63;;;0.40;;
705;SDS011;21234;48.690;9.016;2023-05-10T08:52:57;0.50;;;0.40;;
705;SDS011;21234;48.690;9.016;2023-05-10T08:55:28;1.37;;;0.60;;
705;SDS011;21234;48.690;9.016;2023-05-10T08:57:55;0.60;;;0.40;;
705;SDS011;21234;48.690;9.016;2023-05-10T09:00:22;0.90;;;0.40;;
705;SDS011;21234;48.690;9.016;2023-05-10T09:02:49;3.20;;;0.53;;
705;SDS011;21234;48.690;9.016;2023-05-10T09:05:16;1.07;;;0.60;;
705;SDS011;21234;48.690;9.016;2023-05-10T09:07:43;2.07;;;0.70;;
705;SDS011;21234;48.690;9.016;2023-05-10T09:10:10;0.60;;;0.50;;
705;SDS011;21234;48.690;9.016;2023-05-10T09:12:40;0.73;;;0.43;;
705;SDS011;21234;48.690;9.016;2023-05-10T09:15:10;1.07;;;0.50;;
705;SDS011;21234;48.690;9.016;2023-05-10T09:17:37;0.50;;;0.40;;
705;SDS011;21234;48.690;9.016;2023-05-10T09:20:06;0.60;;;0.50;;
705;SDS011;21234;48.690;9.016;2023-05-10T09:22:34;0.40;;;0.30;;
705;SDS011;21234;48.690;9.016;2023-05-10T09:25:04;0.50;;;0.33;;
705;SDS011;21234;48.690;9.016;2023-05-10T09:27:34;0.80;;;0.50;;
705;SDS011;21234;48.690;9.016;2023-05-10T09:30:03;0.50;;;0.40;;
705;SDS011;21234;48.690;9.016;2023-05-10T09:32:37;0.40;;;0.30;;
705;SDS011;21234;48.690;9.016;2023-05-10T09:35:06;1.53;;;0.40;;
705;SDS011;21234;48.690;9.016;2023-05-10T09:37:36;0.60;;;0.40;;
705;SDS011;21234;48.690;9.016;2023-05-10T09:40:06;0.40;;;0.30;;
705;SDS011;21234;48.690;9.016;2023-05-10T09:42:34;5.30;;;0.70;;
705;SDS011;21234;48.690;9.016;2023-05-10T09:45:03;0.50;;;0.30;;
705;SDS011;21234;48.690;9.016;2023-05-10T09:47:31;0.40;;;0.40;;
705;SDS011;21234;48.690;9.016;2023-05-10T09:49:59;0.47;;;0.27;;
705;SDS011;21234;48.690;9.016;2023-05-10T09:52:29;1.43;;;0.50;;
705;SDS011;21234;48.690;9.016;2023-05-10T09:54:57;0.60;;;0.50;;
705;SDS011;21234;48.690;9.016;2023-05-10T09:57:24;1.57;;;0.53;;
705;SDS011;21234;48.690;9.016;2023-05-10T09:59:51;0.57;;;0.40;;
705;SDS011;21234;48.690;9.016;2023-05-10T10:02:20;0.67;;;0.40;;
705;SDS011;21234;48.690;9.016;2023-05-10T10:04:49;3.17;;;0.50;;
705;SDS011;21234;48.690;9.016;2023-05-10T10:07:17;0.80;;;0.50;;
705;SDS011;21234;48.690;9.016;2023-05-10T10:09:49;0.60;;;0.40;;
705;SDS011;21234;48.690;9.016;2023-05-10T10:12:16;2.90;;;0.80;;
705;SDS011;21234;48.690;9.016;2023-05-10T10:14:44;0.90;;;0.50;;
705;SDS011;21234;48.690;9.016;2023-05-10T10:17:13;0.70;;;0.40;;
705;SDS011;21234;48.690;9.016;2023-05-10T10:19:42;1.27;;;0.60;;
705;SDS011;21234;48.690;9.016;2023-05-10T10:22:09;0.60;;;0.40;;
705;SDS011;21234;48.690;9.016;2023-05-10T10:24:37;2.00;;;0.50;;
705;SDS011;21234;48.690;9.016;2023-05-10T10:27:14;0.80;;;0.40;;
705;SDS011;21234;48.690;9.016;2023-05-10T10:29:50;1.67;;;0.67;;
705;SDS011;21234;48.690;9.016;2023-05-10T10:32:26;1.80;;;0.80;;
705;SDS011;21234;48.690;9.016;2023-05-10T10:35:03;1.17;;;0.60;;
705;SDS011;21234;48.690;9.016;2023-05-10T10:40:25;0.80;;;0.40;;
705;SDS011;21234;48.690;9.016;2023-05-10T10:42:52;3.70;;;0.60;;
705;SDS011;21234;48.690;9.016;2023-05-10T10:45:20;1.10;;;0.53;;
705;SDS011;21234;48.690;9.016;2023-05-10T10:47:47;0.67;;;0.67;;
705;SDS011;21234;48.690;9.016;2023-05-10T10:50:16;0.90;;;0.43;;
705;SDS011;21234;48.690;9.016;2023-05-10T10:52:43;0.50;;;0.30;;
705;SDS011;21234;48.690;9.016;2023-05-10T10:55:10;1.37;;;0.60;;
705;SDS011;21234;48.690;9.016;2023-05-10T10:57:47;5.20;;;0.67;;
705;SDS011;21234;48.690;9.016;2023-05-10T11:00:20;2.00;;;0.60;;
705;SDS011;21234;48.690;9.016;2023-05-10T11:02:56;0.70;;;0.40;;
705;SDS011;21234;48.690;9.016;2023-05-10T11:05:37;0.70;;;0.67;;
705;SDS011;21234;48.690;9.016;2023-05-10T11:08:09;3.50;;;0.60;;
705;SDS011;21234;48.690;9.016;2023-05-10T11:10:38;1.07;;;0.43;;
705;SDS011;21234;48.690;9.016;2023-05-10T11:13:06;0.80;;;0.40;;
705;SDS011;21234;48.690;9.016;2023-05-10T11:15:34;1.20;;;0.50;;
705;SDS011;21234;48.690;9.016;2023-05-10T11:18:16;0.60;;;0.53;;
705;SDS011;21234;48.690;9.016;2023-05-10T11:20:46;1.03;;;0.50;;
705;SDS011;21234;48.690;9.016;2023-05-10T11:23:17;1.33;;;0.50;;
705;SDS011;21234;48.690;9.016;2023-05-10T11:25:45;1.67;;;0.80;;
705;SDS011;21234;48.690;9.016;2023-05-10T11:28:12;0.70;;;0.43;;
705;SDS011;21234;48.690;9.016;2023-05-10T11:30:39;0.73;;;0.43;;
705;SDS011;21234;48.690;9.016;2023-05-10T11:33:08;0.70;;;0.60;;
705;SDS011;21234;48.690;9.016;2023-05-10T11:35:39;2.70;;;0.90;;
705;SDS011;21234;48.690;9.016;2023-05-10T11:38:08;1.17;;;0.80;;
705;SDS011;21234;48.690;9.016;2023-05-10T11:40:35;0.53;;;0.50;;
705;SDS011;21234;48.690;9.016;2023-05-10T11:43:03;1.20;;;0.90;;
705;SDS011;21234;48.690;9.016;2023-05-10T11:45:31;0.70;;;0.40;;
705;SDS011;21234;48.690;9.016;2023-05-10T11:47:59;0.70;;;0.60;;
705;SDS011;21234;48.690;9.016;2023-05-10T11:50:26;1.63;;;0.80;;
705;SDS011;21234;48.690;9.016;2023-05-10T11:52:54;1.13;;;0.80;;
705;SDS011;21234;48.690;9.016;2023-05-10T11:55:24;1.10;;;0.80;;
705;SDS011;21234;48.690;9.016;2023-05-10T11:57:54;1.50;;;0.60;;
705;SDS011;21234;48.690;9.016;2023-05-10T12:00:21;4.43;;;1.30;;
705;SDS011;21234;48.690;9.016;2023-05-10T12:02:48;2.00;;;0.70;;
705;SDS011;21234;48.690;9.016;2023-05-10T12:05:15;1.00;;;0.70;;
705;SDS011;21234;48.690;9.016;2023-05-10T12:07:42;1.47;;;0.50;;
705;SDS011;21234;48.690;9.016;2023-05-10T12:10:09;0.70;;;0.50;;
705;SDS011;21234;48.690;9.016;2023-05-10T12:12:41;1.17;;;0.53;;
705;SDS011;21234;48.690;9.016;2023-05-10T12:15:12;3.40;;;0.63;;
705;SDS011;21234;48.690;9.016;2023-05-10T12:17:44;2.07;;;0.67;;
705;SDS011;21234;48.690;9.016;2023-05-10T12:20:14;0.77;;;0.63;;
705;SDS011;21234;48.690;9.016;2023-05-10T12:22:46;3.17;;;1.07;;
705;SDS011;21234;48.690;9.016;2023-05-10T12:25:13;1.67;;;0.90;;
705;SDS011;21234;48.690;9.016;2023-05-10T12:27:42;3.03;;;1.07;;
705;SDS011;21234;48.690;9.016;2023-05-10T12:30:18;2.30;;;0.93;;
705;SDS011;21234;48.690;9.016;2023-05-10T12:32:46;1.10;;;0.70;;
705;SDS011;21234;48.690;9.016;2023-05-10T12:35:13;2.20;;;0.80;;
705;SDS011;21234;48.690;9.016;2023-05-10T12:37:42;1.03;;;0.90;;
705;SDS011;21234;48.690;9.016;2023-05-10T12:40:09;3.43;;;1.27;;
705;SDS011;21234;48.690;9.016;2023-05-10T12:42:38;1.70;;;0.67;;
705;SDS011;21234;48.690;9.016;2023-05-10T12:45:09;1.43;;;0.70;;
705;SDS011;21234;48.690;9.016;2023-05-10T12:47:36;4.33;;;1.00;;
705;SDS011;21234;48.690;9.016;2023-05-10T12:50:04;1.73;;;0.90;;
705;SDS011;21234;48.690;9.016;2023-05-10T12:52:32;2.53;;;1.33;;
705;SDS011;21234;48.690;9.016;2023-05-10T12:54:58;1.67;;;1.57;;
705;SDS011;21234;48.690;9.016;2023-05-10T12:57:25;0.73;;;0.60;;
705;SDS011;21234;48.690;9.016;2023-05-10T12:59:53;0.80;;;0.63;;
705;SDS011;21234;48.690;9.016;2023-05-10T13:02:21;1.43;;;0.80;;
705;SDS011;21234;48.690;9.016;2023-05-10T13:04:50;4.17;;;0.90;;
705;SDS011;21234;48.690;9.016;2023-05-10T13:07:17;0.93;;;0.60;;
705;SDS011;21234;48.690;9.016;2023-05-10T13:09:43;1.53;;;1.00;;
705;SDS011;21234;48.690;9.016;2023-05-10T13:12:10;3.90;;;1.00;;
705;SDS011;21234;48.690;9.016;2023-05-10T13:14:37;1.93;;;1.00;;
705;SDS011;21234;48.690;9.016;2023-05-10T13:17:05;2.90;;;0.97;;
705;SDS011;21234;48.690;9.016;2023-05-10T13:19:33;1.47;;;0.67;;
705;SDS011;21234;48.690;9.016;2023-05-10T13:22:00;1.87;;;0.60;;
705;SDS011;21234;48.690;9.016;2023-05-10T13:24:27;3.72;;;0.70;;
705;SDS011;21234;48.690;9.016;2023-05-10T13:26:53;1.80;;;0.90;;
705;SDS011;21234;48.690;9.016;2023-05-10T13:29:20;0.90;;;0.80;;
705;SDS011;21234;48.690;9.016;2023-05-10T13:31:47;0.90;;;0.50;;
705;SDS011;21234;48.690;9.016;2023-05-10T13:34:14;0.60;;;0.60;;
705;SDS011;21234;48.690;9.016;2023-05-10T13:36:42;1.00;;;0.90;;
705;SDS011;21234;48.690;9.016;2023-05-10T13:39:10;1.13;;;0.80;;
705;SDS011;21234;48.690;9.016;2023-05-10T13:41:37;1.43;;;0.87;;
705;SDS011;21234;48.690;9.016;2023-05-10T13:44:03;1.30;;;1.00;;
705;SDS011;21234;48.690;9.016;2023-05-10T13:46:30;1.87;;;1.20;;
705;SDS011;21234;48.690;9.016;2023-05-10T13:48:57;1.53;;;1.00;;
705;SDS011;21234;48.690;9.016;2023-05-10T13:51:23;2.73;;;1.00;;
705;SDS011;21234;48.690;9.016;2023-05-10T13:53:51;0.80;;;0.63;;
705;SDS011;21234;48.690;9.016;2023-05-10T13:56:18;0.80;;;0.60;;
705;SDS011;21234;48.690;9.016;2023-05-10T13:58:45;1.10;;;0.60;;
705;SDS011;21234;48.690;9.016;2023-05-10T14:01:12;2.20;;;0.80;;
705;SDS011;21234;48.690;9.016;2023-05-10T14:03:39;0.77;;;0.77;;
705;SDS011;21234;48.690;9.016;2023-05-10T14:06:06;2.30;;;1.27;;
705;SDS011;21234;48.690;9.016;2023-05-10T14:08:33;3.47;;;0.80;;
705;SDS011;21234;48.690;9.016;2023-05-10T14:11:01;2.57;;;0.70;;
705;SDS011;21234;48.690;9.016;2023-05-10T14:13:28;1.70;;;0.83;;
705;SDS011;21234;48.690;9.016;2023-05-10T14:15:55;1.77;;;0.67;;
705;SDS011;21234;48.690;9.016;2023-05-10T14:18:22;1.80;;;1.00;;
705;SDS011;21234;48.690;9.016;2023-05-10T14:20:48;1.70;;;0.90;;
705;SDS011;21234;48.690;9.016;2023-05-10T14:23:16;1.30;;;0.77;;
705;SDS011;21234;48.690;9.016;2023-05-10T14:25:44;0.93;;;0.80;;
705;SDS011;21234;48.690;9.016;2023-05-10T14:28:12;0.93;;;0.50;;
705;SDS011;21234;48.690;9.016;2023-05-10T14:30:39;1.10;;;0.70;;
705;SDS011;21234;48.690;9.016;2023-05-10T14:33:07;1.10;;;1.00;;
705;SDS011;21234;48.690;9.016;2023-05-10T14:35:33;1.57;;;1.13;;
705;SDS011;21234;48.690;9.016;2023-05-10T14:38:01;1.10;;;0.80;;
705;SDS011;21234;48.690;9.016;2023-05-10T14:40:29;2.60;;;1.30;;
705;SDS011;21234;48.690;9.016;2023-05-10T14:42:56;1.13;;;0.40;;
705;SDS011;21234;48.690;9.016;2023-05-10T14:45:24;0.80;;;0.73;;
705;SDS011;21234;48.690;9.016;2023-05-10T14:47:53;1.57;;;0.60;;
705;SDS011;21234;48.690;9.016;2023-05-10T14:50:20;1.20;;;0.77;;
705;SDS011;21234;48.690;9.016;2023-05-10T14:52:46;0.90;;;0.80;;
705;SDS011;21234;48.690;9.016;2023-05-10T14:55:14;1.07;;;0.50;;
705;SDS011;21234;48.690;9.016;2023-05-10T14:57:41;0.80;;;0.40;;
705;SDS011;21234;48.690;9.016;2023-05-10T15:00:10;1.40;;;0.80;;
705;SDS011;21234;48.690;9.016;2023-05-10T15:02:41;1.87;;;0.90;;
705;SDS011;21234;48.690;9.016;2023-05-10T15:05:09;1.70;;;0.77;;
705;SDS011;21234;48.690;9.016;2023-05-10T15:07:35;2.53;;;0.90;;
705;SDS011;21234;48.690;9.016;2023-05-10T15:10:04;1.20;;;0.73;;
705;SDS011;21234;48.690;9.016;2023-05-10T15:12:32;2.30;;;0.90;;
705;SDS011;21234;48.690;9.016;2023-05-10T15:14:59;0.90;;;0.80;;
705;SDS011;21234;48.690;9.016;2023-05-10T15:17:25;2.63;;;1.03;;
705;SDS011;21234;48.690;9.016;2023-05-10T15:19:54;1.30;;;0.73;;
705;SDS011;21234;48.690;9.016;2023-05-10T15:22:20;0.70;;;0.70;;
705;SDS011;21234;48.690;9.016;2023-05-10T15:24:47;1.90;;;0.70;;
705;SDS011;21234;48.690;9.016;2023-05-10T15:27:14;0.83;;;0.73;;
705;SDS011;21234;48.690;9.016;2023-05-10T15:29:40;1.33;;;0.60;;
705;SDS011;21234;48.690;9.016;2023-05-10T15:32:07;1.33;;;0.60;;